sensor_id;sensor_type;location;lat;lon;timestamp;pressure;altitude;pressure_sealevel;temperature;humidity
65756;BME280;69208;47.502;18.940;2023-05-16T00:00:35;97717.75;;;12.17;97.47
65756;BME280;69208;47.502;18.940;2023-05-16T00:01:39;97716.38;;;12.20;97.11
65756;BME280;69208;47.502;18.940;2023-05-16T00:02:42;97717.00;;;12.17;97.15
65756;BME280;69208;47.502;18.940;2023-05-16T00:03:45;97713.25;;;12.18;97.49
65756;BME280;69208;47.502;18.940;2023-05-16T00:04:49;97711.72;;;12.25;97.30
65756;BME280;69208;47.502;18.940;2023-05-16T00:05:52;97707.34;;;12.38;97.68
65756;BME280;69208;47.502;18.940;2023-05-16T00:06:55;97705.66;;;12.42;97.97
65756;BME280;69208;47.502;18.940;2023-05-16T00:07:58;97703.62;;;12.39;98.27
65756;BME280;69208;47.502;18.940;2023-05-16T00:09:03;97699.63;;;12.33;98.68
65756;BME280;69208;47.502;18.940;2023-05-16T00:10:07;97695.94;;;12.34;98.99
65756;BME280;69208;47.502;18.940;2023-05-16T00:11:10;97696.75;;;12.17;99.69
65756;BME280;69208;47.502;18.940;2023-05-16T00:12:13;97694.13;;;12.17;99.59
65756;BME280;69208;47.502;18.940;2023-05-16T00:13:16;97697.63;;;12.30;98.77
65756;BME280;69208;47.502;18.940;2023-05-16T00:14:24;97694.69;;;12.32;98.28
65756;BME280;69208;47.502;18.940;2023-05-16T00:15:28;97692.25;;;12.26;98.57
65756;BME280;69208;47.502;18.940;2023-05-16T00:16:31;97690.38;;;12.27;98.92
65756;BME280;69208;47.502;18.940;2023-05-16T00:17:35;97684.87;;;12.11;100.00
65756;BME280;69208;47.502;18.940;2023-05-16T00:18:38;97690.13;;;12.11;100.00
65756;BME280;69208;47.502;18.940;2023-05-16T00:19:41;97680.38;;;12.12;98.16
65756;BME280;69208;47.502;18.940;2023-05-16T00:20:49;97682.09;;;12.16;99.00
65756;BME280;69208;47.502;18.940;2023-05-16T00:21:54;97679.31;;;12.13;99.18
65756;BME280;69208;47.502;18.940;2023-05-16T00:22:58;97672.66;;;12.15;99.11
65756;BME280;69208;47.502;18.940;2023-05-16T00:24:04;97673.28;;;12.12;98.30
65756;BME280;69208;47.502;18.940;2023-05-16T00:25:07;97668.50;;;12.05;99.21
65756;BME280;69208;47.502;18.940;2023-05-16T00:26:10;97671.47;;;12.04;98.55
65756;BME280;69208;47.502;18.940;2023-05-16T00:27:13;97672.09;;;12.01;97.63
65756;BME280;69208;47.502;18.940;2023-05-16T00:28:16;97672.84;;;12.01;98.05
65756;BME280;69208;47.502;18.940;2023-05-16T00:29:19;97677.94;;;11.98;97.33
65756;BME280;69208;47.502;18.940;2023-05-16T00:30:23;97678.75;;;11.90;97.89
65756;BME280;69208;47.502;18.940;2023-05-16T00:31:26;97678.88;;;11.84;97.58
65756;BME280;69208;47.502;18.940;2023-05-16T00:32:30;97688.00;;;11.96;98.50
65756;BME280;69208;47.502;18.940;2023-05-16T00:33:33;97686.13;;;11.96;98.63
65756;BME280;69208;47.502;18.940;2023-05-16T00:34:36;97682.13;;;11.99;99.86
65756;BME280;69208;47.502;18.940;2023-05-16T00:35:39;97687.38;;;11.99;99.79
65756;BME280;69208;47.502;18.940;2023-05-16T00:36:42;97691.25;;;11.93;99.16
65756;BME280;69208;47.502;18.940;2023-05-16T00:37:45;97685.53;;;11.91;99.99
65756;BME280;69208;47.502;18.940;2023-05-16T00:38:48;97684.28;;;11.97;100.00
65756;BME280;69208;47.502;18.940;2023-05-16T00:39:51;97690.16;;;11.94;99.72
65756;BME280;69208;47.502;18.940;2023-05-16T00:40:54;97684.63;;;11.87;99.97
65756;BME280;69208;47.502;18.940;2023-05-16T00:41:57;97683.53;;;11.88;100.00
65756;BME280;69208;47.502;18.940;2023-05-16T00:43:00;97675.78;;;12.00;100.00
65756;BME280;69208;47.502;18.940;2023-05-16T00:44:03;97687.66;;;11.97;100.00
65756;BME280;69208;47.502;18.940;2023-05-16T00:45:07;97690.00;;;11.90;100.00
65756;BME280;69208;47.502;18.940;2023-05-16T00:46:10;97689.25;;;11.90;100.00
65756;BME280;69208;47.502;18.940;2023-05-16T00:47:14;97689.22;;;11.98;100.00
65756;BME280;69208;47.502;18.940;2023-05-16T00:48:17;97681.66;;;11.97;100.00
65756;BME280;69208;47.502;18.940;2023-05-16T00:49:20;97683.19;;;11.98;100.00
65756;BME280;69208;47.502;18.940;2023-05-16T00:50:23;97679.03;;;11.97;100.00
65756;BME280;69208;47.502;18.940;2023-05-16T00:51:27;97682.28;;;11.94;100.00
65756;BME280;69208;47.502;18.940;2023-05-16T00:52:30;97687.69;;;11.89;100.00
65756;BME280;69208;47.502;18.940;2023-05-16T00:53:35;97688.62;;;11.93;100.00
65756;BME280;69208;47.502;18.940;2023-05-16T00:54:38;97674.41;;;11.94;100.00
65756;BME280;69208;47.502;18.940;2023-05-16T00:55:41;97682.13;;;11.99;100.00
65756;BME280;69208;47.502;18.940;2023-05-16T00:56:45;97693.09;;;12.01;100.00
65756;BME280;69208;47.502;18.940;2023-05-16T00:57:48;97688.75;;;11.96;100.00
65756;BME280;69208;47.502;18.940;2023-05-16T00:58:51;97695.53;;;11.97;100.00
65756;BME280;69208;47.502;18.940;2023-05-16T00:59:55;97700.50;;;11.90;100.00
65756;BME280;69208;47.502;18.940;2023-05-16T01:00:59;97699.59;;;11.86;100.00
65756;BME280;69208;47.502;18.940;2023-05-16T01:02:03;97708.22;;;11.78;100.00
65756;BME280;69208;47.502;18.940;2023-05-16T01:03:07;97701.72;;;11.84;100.00
65756;BME280;69208;47.502;18.940;2023-05-16T01:04:11;97711.62;;;11.96;100.00
65756;BME280;69208;47.502;18.940;2023-05-16T01:05:14;97712.84;;;11.98;100.00
65756;BME280;69208;47.502;18.940;2023-05-16T01:06:17;97708.66;;;12.06;100.00
65756;BME280;69208;47.502;18.940;2023-05-16T01:07:20;97696.47;;;12.01;100.00
65756;BME280;69208;47.502;18.940;2023-05-16T01:08:23;97699.37;;;12.09;100.00
65756;BME280;69208;47.502;18.940;2023-05-16T01:09:27;97704.97;;;12.07;100.00
65756;BME280;69208;47.502;18.940;2023-05-16T01:10:43;97702.03;;;12.00;100.00
65756;BME280;69208;47.502;18.940;2023-05-16T01:12:12;97706.22;;;12.01;100.00
65756;BME280;69208;47.502;18.940;2023-05-16T01:16:49;97715.16;;;12.00;100.00
65756;BME280;69208;47.502;18.940;2023-05-16T01:20:55;97705.13;;;11.93;100.00
65756;BME280;69208;47.502;18.940;2023-05-16T01:22:08;97694.34;;;11.77;100.00
65756;BME280;69208;47.502;18.940;2023-05-16T01:26:24;97686.28;;;11.82;100.00
65756;BME280;69208;47.502;18.940;2023-05-16T01:27:29;97682.13;;;11.81;100.00
65756;BME280;69208;47.502;18.940;2023-05-16T01:28:33;97691.72;;;11.69;100.00
65756;BME280;69208;47.502;18.940;2023-05-16T01:29:36;97689.22;;;11.72;100.00
65756;BME280;69208;47.502;18.940;2023-05-16T01:30:40;97696.00;;;11.73;100.00
65756;BME280;69208;47.502;18.940;2023-05-16T01:31:43;97689.84;;;11.78;100.00
65756;BME280;69208;47.502;18.940;2023-05-16T01:32:46;97686.59;;;11.81;100.00
65756;BME280;69208;47.502;18.940;2023-05-16T01:33:49;97697.41;;;11.79;100.00
65756;BME280;69208;47.502;18.940;2023-05-16T01:34:52;97697.56;;;11.74;100.00
65756;BME280;69208;47.502;18.940;2023-05-16T01:37:28;97702.03;;;11.91;100.00
65756;BME280;69208;47.502;18.940;2023-05-16T01:38:41;97693.41;;;11.91;100.00
65756;BME280;69208;47.502;18.940;2023-05-16T01:39:54;97698.63;;;11.99;100.00
65756;BME280;69208;47.502;18.940;2023-05-16T01:42:49;97682.59;;;11.92;99.91
65756;BME280;69208;47.502;18.940;2023-05-16T01:44:00;97672.41;;;11.91;100.00
65756;BME280;69208;47.502;18.940;2023-05-16T01:45:11;97671.31;;;11.92;100.00
65756;BME280;69208;47.502;18.940;2023-05-16T01:46:42;97665.75;;;11.93;100.00
65756;BME280;69208;47.502;18.940;2023-05-16T01:47:57;97665.47;;;11.86;100.00
65756;BME280;69208;47.502;18.940;2023-05-16T01:49:18;97667.75;;;11.79;100.00
65756;BME280;69208;47.502;18.940;2023-05-16T01:50:24;97679.78;;;11.80;100.00
65756;BME280;69208;47.502;18.940;2023-05-16T01:51:32;97668.22;;;11.81;100.00
65756;BME280;69208;47.502;18.940;2023-05-16T01:53:49;97676.13;;;11.72;100.00
65756;BME280;69208;47.502;18.940;2023-05-16T01:54:52;97679.78;;;11.80;100.00
65756;BME280;69208;47.502;18.940;2023-05-16T01:56:00;97671.78;;;11.94;100.00
65756;BME280;69208;47.502;18.940;2023-05-16T01:57:05;97666.84;;;12.01;100.00
65756;BME280;69208;47.502;18.940;2023-05-16T01:58:10;97664.06;;;11.89;100.00
65756;BME280;69208;47.502;18.940;2023-05-16T01:59:14;97668.53;;;11.88;100.00
65756;BME280;69208;47.502;18.940;2023-05-16T02:00:17;97662.53;;;11.88;100.00
65756;BME280;69208;47.502;18.940;2023-05-16T02:01:20;97654.66;;;11.88;100.00
65756;BME280;69208;47.502;18.940;2023-05-16T02:02:23;97657.28;;;11.88;100.00
65756;BME280;69208;47.502;18.940;2023-05-16T02:03:26;97658.78;;;11.80;100.00
65756;BME280;69208;47.502;18.940;2023-05-16T02:04:29;97650.62;;;11.73;100.00
65756;BME280;69208;47.502;18.940;2023-05-16T02:05:33;97651.56;;;11.77;100.00
65756;BME280;69208;47.502;18.940;2023-05-16T02:06:36;97656.34;;;11.83;100.00
65756;BME280;69208;47.502;18.940;2023-05-16T02:07:39;97646.31;;;11.86;100.00
65756;BME280;69208;47.502;18.940;2023-05-16T02:08:42;97641.22;;;11.80;100.00
65756;BME280;69208;47.502;18.940;2023-05-16T02:09:45;97638.59;;;11.80;100.00
65756;BME280;69208;47.502;18.940;2023-05-16T02:10:49;97642.94;;;11.85;100.00
65756;BME280;69208;47.502;18.940;2023-05-16T02:11:51;97638.91;;;11.79;100.00
65756;BME280;69208;47.502;18.940;2023-05-16T02:12:54;97644.91;;;11.79;100.00
65756;BME280;69208;47.502;18.940;2023-05-16T02:13:58;97637.81;;;11.89;100.00
65756;BME280;69208;47.502;18.940;2023-05-16T02:15:01;97643.53;;;11.91;100.00
65756;BME280;69208;47.502;18.940;2023-05-16T02:16:03;97645.53;;;11.94;100.00
65756;BME280;69208;47.502;18.940;2023-05-16T02:17:07;97654.78;;;11.82;99.89
65756;BME280;69208;47.502;18.940;2023-05-16T02:18:10;97661.59;;;11.83;100.00
65756;BME280;69208;47.502;18.940;2023-05-16T02:19:13;97662.81;;;11.95;100.00
65756;BME280;69208;47.502;18.940;2023-05-16T02:20:16;97664.66;;;11.94;100.00
65756;BME280;69208;47.502;18.940;2023-05-16T02:21:19;97660.50;;;11.93;99.33
65756;BME280;69208;47.502;18.940;2023-05-16T02:22:22;97659.75;;;11.93;100.00
65756;BME280;69208;47.502;18.940;2023-05-16T02:23:25;97662.97;;;11.98;100.00
65756;BME280;69208;47.502;18.940;2023-05-16T02:24:28;97655.25;;;12.02;100.00
65756;BME280;69208;47.502;18.940;2023-05-16T02:25:31;97648.91;;;12.03;100.00
65756;BME280;69208;47.502;18.940;2023-05-16T02:26:34;97638.87;;;12.05;100.00
65756;BME280;69208;47.502;18.940;2023-05-16T02:27:37;97644.59;;;12.07;100.00
65756;BME280;69208;47.502;18.940;2023-05-16T02:28:40;97645.03;;;12.09;100.00
65756;BME280;69208;47.502;18.940;2023-05-16T02:29:43;97641.03;;;12.03;100.00
65756;BME280;69208;47.502;18.940;2023-05-16T02:30:55;97641.31;;;12.10;100.00
65756;BME280;69208;47.502;18.940;2023-05-16T02:31:59;97638.69;;;12.10;100.00
65756;BME280;69208;47.502;18.940;2023-05-16T02:33:01;97635.34;;;12.01;100.00
65756;BME280;69208;47.502;18.940;2023-05-16T02:34:05;97634.38;;;12.05;100.00
65756;BME280;69208;47.502;18.940;2023-05-16T02:35:08;97634.38;;;12.05;100.00
65756;BME280;69208;47.502;18.940;2023-05-16T02:36:11;97630.25;;;11.96;100.00
65756;BME280;69208;47.502;18.940;2023-05-16T02:37:14;97623.94;;;11.88;100.00
65756;BME280;69208;47.502;18.940;2023-05-16T02:38:17;97623.31;;;11.91;100.00
65756;BME280;69208;47.502;18.940;2023-05-16T02:39:22;97616.50;;;11.81;100.00
65756;BME280;69208;47.502;18.940;2023-05-16T02:40:25;97622.87;;;11.89;100.00
65756;BME280;69208;47.502;18.940;2023-05-16T02:41:28;97612.78;;;11.82;100.00
65756;BME280;69208;47.502;18.940;2023-05-16T02:42:31;97617.16;;;11.70;100.00
65756;BME280;69208;47.502;18.940;2023-05-16T02:43:34;97615.00;;;11.63;100.00
65756;BME280;69208;47.502;18.940;2023-05-16T02:44:38;97621.81;;;11.55;100.00
65756;BME280;69208;47.502;18.940;2023-05-16T02:45:41;97622.28;;;11.57;100.00
65756;BME280;69208;47.502;18.940;2023-05-16T02:46:43;97626.59;;;11.53;100.00
65756;BME280;69208;47.502;18.940;2023-05-16T02:47:47;97623.78;;;11.67;100.00
65756;BME280;69208;47.502;18.940;2023-05-16T02:48:50;97631.81;;;11.71;100.00
65756;BME280;69208;47.502;18.940;2023-05-16T02:49:53;97626.12;;;11.60;100.00
65756;BME280;69208;47.502;18.940;2023-05-16T02:50:56;97638.16;;;11.61;100.00
65756;BME280;69208;47.502;18.940;2023-05-16T02:52:00;97635.38;;;11.66;100.00
65756;BME280;69208;47.502;18.940;2023-05-16T02:53:03;97640.78;;;11.70;100.00
65756;BME280;69208;47.502;18.940;2023-05-16T02:54:06;97641.69;;;11.65;100.00
65756;BME280;69208;47.502;18.940;2023-05-16T02:55:11;97643.13;;;11.54;100.00
65756;BME280;69208;47.502;18.940;2023-05-16T02:56:17;97642.47;;;11.66;100.00
65756;BME280;69208;47.502;18.940;2023-05-16T02:57:21;97644.03;;;11.58;100.00
65756;BME280;69208;47.502;18.940;2023-05-16T02:58:23;97641.41;;;11.49;100.00
65756;BME280;69208;47.502;18.940;2023-05-16T02:59:27;97640.16;;;11.55;100.00
65756;BME280;69208;47.502;18.940;2023-05-16T03:00:29;97649.88;;;11.64;100.00
65756;BME280;69208;47.502;18.940;2023-05-16T03:01:32;97640.78;;;11.61;100.00
65756;BME280;69208;47.502;18.940;2023-05-16T03:02:36;97640.63;;;11.57;100.00
65756;BME280;69208;47.502;18.940;2023-05-16T03:03:39;97628.13;;;11.54;100.00
65756;BME280;69208;47.502;18.940;2023-05-16T03:04:42;97625.81;;;11.53;100.00
65756;BME280;69208;47.502;18.940;2023-05-16T03:05:45;97629.38;;;11.57;100.00
65756;BME280;69208;47.502;18.940;2023-05-16T03:06:49;97618.09;;;11.56;100.00
65756;BME280;69208;47.502;18.940;2023-05-16T03:07:52;97615.44;;;11.65;100.00
65756;BME280;69208;47.502;18.940;2023-05-16T03:08:55;97611.75;;;11.66;100.00
65756;BME280;69208;47.502;18.940;2023-05-16T03:09:58;97606.81;;;11.65;100.00
65756;BME280;69208;47.502;18.940;2023-05-16T03:11:01;97609.75;;;11.72;100.00
65756;BME280;69208;47.502;18.940;2023-05-16T03:12:04;97613.13;;;11.72;100.00
65756;BME280;69208;47.502;18.940;2023-05-16T03:13:08;97608.78;;;11.76;100.00
65756;BME280;69208;47.502;18.940;2023-05-16T03:14:11;97612.66;;;11.79;99.29
65756;BME280;69208;47.502;18.940;2023-05-16T03:15:15;97603.56;;;11.76;98.37
65756;BME280;69208;47.502;18.940;2023-05-16T03:16:19;97609.75;;;11.72;98.49
65756;BME280;69208;47.502;18.940;2023-05-16T03:17:22;97611.12;;;11.69;98.73
65756;BME280;69208;47.502;18.940;2023-05-16T03:18:24;97617.16;;;11.70;98.54
65756;BME280;69208;47.502;18.940;2023-05-16T03:19:27;97623.63;;;11.72;98.85
65756;BME280;69208;47.502;18.940;2023-05-16T03:20:30;97624.69;;;11.80;97.75
65756;BME280;69208;47.502;18.940;2023-05-16T03:21:33;97626.69;;;11.83;95.14
65756;BME280;69208;47.502;18.940;2023-05-16T03:22:36;97633.78;;;11.82;94.65
65756;BME280;69208;47.502;18.940;2023-05-16T03:23:39;97634.41;;;11.79;96.49
65756;BME280;69208;47.502;18.940;2023-05-16T03:24:42;97626.69;;;11.83;96.72
65756;BME280;69208;47.502;18.940;2023-05-16T03:25:47;97636.44;;;11.91;96.46
65756;BME280;69208;47.502;18.940;2023-05-16T03:26:50;97640.28;;;11.94;95.34
65756;BME280;69208;47.502;18.940;2023-05-16T03:27:53;97638.75;;;11.93;95.06
65756;BME280;69208;47.502;18.940;2023-05-16T03:28:56;97634.12;;;11.90;95.00
65756;BME280;69208;47.502;18.940;2023-05-16T03:29:59;97643.53;;;11.91;95.27
65756;BME280;69208;47.502;18.940;2023-05-16T03:31:02;97639.06;;;11.91;96.08
65756;BME280;69208;47.502;18.940;2023-05-16T03:32:05;97638.41;;;11.94;96.73
65756;BME280;69208;47.502;18.940;2023-05-16T03:33:08;97636.88;;;11.93;94.85
65756;BME280;69208;47.502;18.940;2023-05-16T03:34:11;97640.16;;;11.90;94.87
65756;BME280;69208;47.502;18.940;2023-05-16T03:35:14;97635.19;;;11.89;96.32
65756;BME280;69208;47.502;18.940;2023-05-16T03:36:19;97638.41;;;11.94;95.22
65756;BME280;69208;47.502;18.940;2023-05-16T03:37:23;97646.13;;;11.99;94.47
65756;BME280;69208;47.502;18.940;2023-05-16T03:38:26;97641.97;;;12.07;94.09
65756;BME280;69208;47.502;18.940;2023-05-16T03:39:29;97636.72;;;12.07;94.16
65756;BME280;69208;47.502;18.940;2023-05-16T03:40:32;97631.88;;;12.18;92.60
65756;BME280;69208;47.502;18.940;2023-05-16T03:41:35;97635.12;;;12.15;93.37
65756;BME280;69208;47.502;18.940;2023-05-16T03:42:38;97637.75;;;12.15;92.36
65756;BME280;69208;47.502;18.940;2023-05-16T03:43:41;97625.84;;;12.17;92.04
65756;BME280;69208;47.502;18.940;2023-05-16T03:44:44;97623.69;;;12.19;91.59
65756;BME280;69208;47.502;18.940;2023-05-16T03:45:47;97622.59;;;12.20;92.69
65756;BME280;69208;47.502;18.940;2023-05-16T03:46:50;97610.69;;;12.23;92.23
65756;BME280;69208;47.502;18.940;2023-05-16T03:47:54;97614.38;;;12.31;91.59
65756;BME280;69208;47.502;18.940;2023-05-16T03:48:57;97611.91;;;12.25;91.71
65756;BME280;69208;47.502;18.940;2023-05-16T03:50:00;97605.88;;;12.34;92.01
65756;BME280;69208;47.502;18.940;2023-05-16T03:51:03;97603.53;;;12.32;92.48
65756;BME280;69208;47.502;18.940;2023-05-16T03:52:06;97606.75;;;12.38;91.86
65756;BME280;69208;47.502;18.940;2023-05-16T03:53:10;97606.50;;;12.31;91.45
65756;BME280;69208;47.502;18.940;2023-05-16T03:54:13;97606.50;;;12.31;92.15
65756;BME280;69208;47.502;18.940;2023-05-16T03:55:16;97615.78;;;12.28;91.01
65756;BME280;69208;47.502;18.940;2023-05-16T03:56:19;97617.09;;;12.43;90.14
65756;BME280;69208;47.502;18.940;2023-05-16T03:57:23;97619.91;;;12.38;88.83
65756;BME280;69208;47.502;18.940;2023-05-16T03:58:26;97617.72;;;12.40;89.45
65756;BME280;69208;47.502;18.940;2023-05-16T03:59:29;97616.63;;;12.41;90.76
65756;BME280;69208;47.502;18.940;2023-05-16T04:00:32;97609.34;;;12.46;90.22
65756;BME280;69208;47.502;18.940;2023-05-16T04:01:36;97611.38;;;12.41;89.78
65756;BME280;69208;47.502;18.940;2023-05-16T04:02:39;97609.13;;;12.31;90.73
65756;BME280;69208;47.502;18.940;2023-05-16T04:03:42;97614.38;;;12.31;90.77
65756;BME280;69208;47.502;18.940;2023-05-16T04:04:46;97612.38;;;12.27;90.45
65756;BME280;69208;47.502;18.940;2023-05-16T04:05:48;97612.19;;;12.33;90.89
65756;BME280;69208;47.502;18.940;2023-05-16T04:06:51;97615.75;;;12.37;90.21
65756;BME280;69208;47.502;18.940;2023-05-16T04:07:54;97614.78;;;12.41;89.69
65756;BME280;69208;47.502;18.940;2023-05-16T04:08:57;97619.19;;;12.58;86.68
65756;BME280;69208;47.502;18.940;2023-05-16T04:10:01;97613.03;;;12.54;88.00
65756;BME280;69208;47.502;18.940;2023-05-16T04:11:04;97620.34;;;12.40;88.82
65756;BME280;69208;47.502;18.940;2023-05-16T04:12:07;97624.97;;;12.43;88.20
65756;BME280;69208;47.502;18.940;2023-05-16T04:13:10;97619.56;;;12.39;89.70
65756;BME280;69208;47.502;18.940;2023-05-16T04:14:14;97609.38;;;12.38;90.43
65756;BME280;69208;47.502;18.940;2023-05-16T04:15:17;97609.66;;;12.45;90.63
65756;BME280;69208;47.502;18.940;2023-05-16T04:16:20;97607.81;;;12.45;89.68
65756;BME280;69208;47.502;18.940;2023-05-16T04:17:23;97612.28;;;12.45;88.78
65756;BME280;69208;47.502;18.940;2023-05-16T04:18:26;97609.38;;;12.38;89.85
65756;BME280;69208;47.502;18.940;2023-05-16T04:19:28;97610.25;;;12.50;88.61
65756;BME280;69208;47.502;18.940;2023-05-16T04:20:31;97617.06;;;12.51;88.98
65756;BME280;69208;47.502;18.940;2023-05-16T04:21:34;97624.00;;;12.47;89.11
65756;BME280;69208;47.502;18.940;2023-05-16T04:22:38;97624.59;;;12.53;88.17
65756;BME280;69208;47.502;18.940;2023-05-16T04:23:41;97630.31;;;12.55;88.82
65756;BME280;69208;47.502;18.940;2023-05-16T04:24:44;97626.09;;;12.63;86.79
65756;BME280;69208;47.502;18.940;2023-05-16T04:25:47;97625.19;;;12.59;86.46
65756;BME280;69208;47.502;18.940;2023-05-16T04:26:50;97629.22;;;12.56;87.20
65756;BME280;69208;47.502;18.940;2023-05-16T04:27:52;97632.50;;;12.53;87.98
65756;BME280;69208;47.502;18.940;2023-05-16T04:28:56;97633.47;;;12.48;88.33
65756;BME280;69208;47.502;18.940;2023-05-16T04:30:01;97627.06;;;12.58;87.54
65756;BME280;69208;47.502;18.940;2023-05-16T04:31:04;97635.56;;;12.55;87.27
65756;BME280;69208;47.502;18.940;2023-05-16T04:32:07;97637.28;;;12.51;88.19
65756;BME280;69208;47.502;18.940;2023-05-16T04:33:11;97642.41;;;12.47;89.26
65756;BME280;69208;47.502;18.940;2023-05-16T04:34:14;97646.13;;;12.46;88.98
65756;BME280;69208;47.502;18.940;2023-05-16T04:35:17;97643.75;;;12.53;88.95
65756;BME280;69208;47.502;18.940;2023-05-16T04:36:20;97646.00;;;12.43;89.70
65756;BME280;69208;47.502;18.940;2023-05-16T04:37:23;97652.78;;;12.44;89.32
65756;BME280;69208;47.502;18.940;2023-05-16T04:38:26;97652.59;;;12.49;88.79
65756;BME280;69208;47.502;18.940;2023-05-16T04:39:29;97658.28;;;12.51;87.85
65756;BME280;69208;47.502;18.940;2023-05-16T04:40:32;97659.69;;;12.57;87.86
65756;BME280;69208;47.502;18.940;2023-05-16T04:41:35;97659.84;;;12.52;87.20
65756;BME280;69208;47.502;18.940;2023-05-16T04:42:38;97654.09;;;12.59;88.00
65756;BME280;69208;47.502;18.940;2023-05-16T04:43:42;97659.13;;;12.72;87.35
65756;BME280;69208;47.502;18.940;2023-05-16T04:44:45;97646.97;;;12.59;87.24
65756;BME280;69208;47.502;18.940;2023-05-16T04:45:49;97648.13;;;12.49;89.02
65756;BME280;69208;47.502;18.940;2023-05-16T04:46:52;97643.38;;;12.43;89.08
65756;BME280;69208;47.502;18.940;2023-05-16T04:47:55;97642.28;;;12.44;89.03
65756;BME280;69208;47.502;18.940;2023-05-16T04:48:58;97640.09;;;12.46;89.18
65756;BME280;69208;47.502;18.940;2023-05-16T04:50:02;97637.63;;;12.49;90.54
65756;BME280;69208;47.502;18.940;2023-05-16T04:51:05;97643.72;;;12.62;88.67
65756;BME280;69208;47.502;18.940;2023-05-16T04:52:08;97646.56;;;12.57;88.82
65756;BME280;69208;47.502;18.940;2023-05-16T04:53:11;97643.00;;;12.53;88.70
65756;BME280;69208;47.502;18.940;2023-05-16T04:54:16;97644.84;;;12.52;88.61
65756;BME280;69208;47.502;18.940;2023-05-16T04:55:19;97641.13;;;12.53;88.33
65756;BME280;69208;47.502;18.940;2023-05-16T04:56:22;97645.00;;;12.56;89.00
65756;BME280;69208;47.502;18.940;2023-05-16T04:57:25;97652.56;;;12.58;89.00
65756;BME280;69208;47.502;18.940;2023-05-16T04:58:29;97657.38;;;12.56;88.23
65756;BME280;69208;47.502;18.940;2023-05-16T04:59:32;97662.03;;;12.50;88.93
65756;BME280;69208;47.502;18.940;2023-05-16T05:00:35;97657.88;;;12.49;89.35
65756;BME280;69208;47.502;18.940;2023-05-16T05:01:38;97664.16;;;12.57;88.39
65756;BME280;69208;47.502;18.940;2023-05-16T05:02:41;97661.69;;;12.60;88.07
65756;BME280;69208;47.502;18.940;2023-05-16T05:03:45;97659.06;;;12.60;88.48
65756;BME280;69208;47.502;18.940;2023-05-16T05:04:50;97661.69;;;12.60;89.01
65756;BME280;69208;47.502;18.940;2023-05-16T05:05:53;97667.09;;;12.55;90.08
65756;BME280;69208;47.502;18.940;2023-05-16T05:06:56;97659.53;;;12.53;90.75
65756;BME280;69208;47.502;18.940;2023-05-16T05:07:59;97656.91;;;12.53;90.59
65756;BME280;69208;47.502;18.940;2023-05-16T05:09:03;97660.13;;;12.59;89.86
65756;BME280;69208;47.502;18.940;2023-05-16T05:10:08;97649.31;;;12.61;89.66
65756;BME280;69208;47.502;18.940;2023-05-16T05:11:11;97654.81;;;12.68;89.23
65756;BME280;69208;47.502;18.940;2023-05-16T05:12:14;97653.13;;;12.72;89.79
65756;BME280;69208;47.502;18.940;2023-05-16T05:13:17;97657.09;;;12.78;88.61
65756;BME280;69208;47.502;18.940;2023-05-16T05:14:20;97655.41;;;12.73;89.11
65756;BME280;69208;47.502;18.940;2023-05-16T05:15:23;97655.91;;;12.67;89.92
65756;BME280;69208;47.502;18.940;2023-05-16T05:16:26;97655.78;;;12.63;90.25
65756;BME280;69208;47.502;18.940;2023-05-16T05:17:29;97657.06;;;12.57;91.53
65756;BME280;69208;47.502;18.940;2023-05-16T05:18:32;97653.59;;;12.65;91.80
65756;BME280;69208;47.502;18.940;2023-05-16T05:19:35;97660.87;;;12.60;91.20
65756;BME280;69208;47.502;18.940;2023-05-16T05:20:39;97658.53;;;12.67;90.92
65756;BME280;69208;47.502;18.940;2023-05-16T05:21:41;97670.75;;;12.63;90.49
65756;BME280;69208;47.502;18.940;2023-05-16T05:22:44;97665.94;;;12.73;89.60
65756;BME280;69208;47.502;18.940;2023-05-16T05:23:48;97674.78;;;12.69;89.83
65756;BME280;69208;47.502;18.940;2023-05-16T05:24:51;97681.56;;;12.70;89.19
65756;BME280;69208;47.502;18.940;2023-05-16T05:25:54;97679.88;;;12.65;89.12
65756;BME280;69208;47.502;18.940;2023-05-16T05:26:57;97682.06;;;12.63;90.08
65756;BME280;69208;47.502;18.940;2023-05-16T05:27:59;97673.84;;;12.65;90.56
65756;BME280;69208;47.502;18.940;2023-05-16T05:29:02;97669.22;;;12.62;91.13
65756;BME280;69208;47.502;18.940;2023-05-16T05:30:07;97668.94;;;12.63;92.02
65756;BME280;69208;47.502;18.940;2023-05-16T05:31:10;97665.19;;;12.64;91.77
65756;BME280;69208;47.502;18.940;2023-05-16T05:32:13;97666.09;;;12.68;90.66
65756;BME280;69208;47.502;18.940;2023-05-16T05:33:16;97663.84;;;12.58;90.18
65756;BME280;69208;47.502;18.940;2023-05-16T05:34:22;97664.47;;;12.55;91.29
65756;BME280;69208;47.502;18.940;2023-05-16T05:35:25;97664.47;;;12.55;91.44
65756;BME280;69208;47.502;18.940;2023-05-16T05:36:28;97668.00;;;12.59;91.44
65756;BME280;69208;47.502;18.940;2023-05-16T05:37:32;97670.13;;;12.66;91.67
65756;BME280;69208;47.502;18.940;2023-05-16T05:38:35;97668.44;;;12.70;92.04
65756;BME280;69208;47.502;18.940;2023-05-16T05:39:38;97666.91;;;12.69;92.83
65756;BME280;69208;47.502;18.940;2023-05-16T05:40:41;97665.19;;;12.64;94.23
65756;BME280;69208;47.502;18.940;2023-05-16T05:41:44;97663.56;;;12.51;94.79
65756;BME280;69208;47.502;18.940;2023-05-16T05:42:47;97664.16;;;12.57;94.52
65756;BME280;69208;47.502;18.940;2023-05-16T05:43:50;97670.00;;;12.62;94.77
65756;BME280;69208;47.502;18.940;2023-05-16T05:44:53;97675.75;;;12.56;94.95
65756;BME280;69208;47.502;18.940;2023-05-16T05:45:56;97677.28;;;12.57;96.21